sensor_id;sensor_type;location;lat;lon;timestamp;P1;durP1;ratioP1;P2;durP2;ratioP2
13708;SDS011;54933;51.908;7.730;2023-01-20T00:02:25;9.47;;;2.47;;
13708;SDS011;54933;51.908;7.730;2023-01-20T00:04:50;5.43;;;1.93;;
13708;SDS011;54933;51.908;7.730;2023-01-20T00:07:15;6.37;;;1.80;;
13708;SDS011;54933;51.908;7.730;2023-01-20T00:09:41;5.23;;;1.70;;
13708;SDS011;54933;51.908;7.730;2023-01-20T00:12:06;2.30;;;1.80;;
13708;SDS011;54933;51.908;7.730;2023-01-20T00:14:31;5.40;;;2.20;;
13708;SDS011;54933;51.908;7.730;2023-01-20T00:16:56;5.70;;;2.10;;
13708;SDS011;54933;51.908;7.730;2023-01-20T00:19:24;5.27;;;2.10;;
13708;SDS011;54933;51.908;7.730;2023-01-20T00:21:49;4.20;;;2.17;;
13708;SDS011;54933;51.908;7.730;2023-01-20T00:24:14;4.90;;;1.50;;
13708;SDS011;54933;51.908;7.730;2023-01-20T00:26:40;3.00;;;1.53;;
13708;SDS011;54933;51.908;7.730;2023-01-20T00:29:05;2.47;;;1.70;;
13708;SDS011;54933;51.908;7.730;2023-01-20T00:31:30;2.43;;;1.73;;
13708;SDS011;54933;51.908;7.730;2023-01-20T00:33:57;5.03;;;1.53;;
13708;SDS011;54933;51.908;7.730;2023-01-20T00:36:24;3.10;;;1.77;;
13708;SDS011;54933;51.908;7.730;2023-01-20T00:38:51;2.83;;;1.87;;
13708;SDS011;54933;51.908;7.730;2023-01-20T00:41:16;3.03;;;2.13;;
13708;SDS011;54933;51.908;7.730;2023-01-20T00:43:42;2.50;;;1.70;;
13708;SDS011;54933;51.908;7.730;2023-01-20T00:46:08;5.53;;;2.03;;
13708;SDS011;54933;51.908;7.730;2023-01-20T00:48:34;3.03;;;1.50;;
13708;SDS011;54933;51.908;7.730;2023-01-20T00:51:00;2.63;;;1.67;;
13708;SDS011;54933;51.908;7.730;2023-01-20T00:53:26;3.50;;;1.70;;
13708;SDS011;54933;51.908;7.730;2023-01-20T00:55:52;7.47;;;2.07;;
13708;SDS011;54933;51.908;7.730;2023-01-20T00:58:17;2.90;;;1.70;;
13708;SDS011;54933;51.908;7.730;2023-01-20T01:00:45;4.30;;;1.60;;
13708;SDS011;54933;51.908;7.730;2023-01-20T01:03:11;4.87;;;1.70;;
13708;SDS011;54933;51.908;7.730;2023-01-20T01:05:36;1.70;;;1.57;;
13708;SDS011;54933;51.908;7.730;2023-01-20T01:08:02;3.33;;;1.73;;
13708;SDS011;54933;51.908;7.730;2023-01-20T01:10:27;1.70;;;1.60;;
13708;SDS011;54933;51.908;7.730;2023-01-20T01:12:53;2.90;;;1.73;;
13708;SDS011;54933;51.908;7.730;2023-01-20T01:15:18;4.43;;;1.70;;
13708;SDS011;54933;51.908;7.730;2023-01-20T01:17:43;1.97;;;1.80;;
13708;SDS011;54933;51.908;7.730;2023-01-20T01:20:09;5.13;;;1.80;;
13708;SDS011;54933;51.908;7.730;2023-01-20T01:22:36;4.83;;;1.63;;
13708;SDS011;54933;51.908;7.730;2023-01-20T01:25:01;1.90;;;1.50;;
13708;SDS011;54933;51.908;7.730;2023-01-20T01:27:27;1.93;;;1.43;;
13708;SDS011;54933;51.908;7.730;2023-01-20T01:29:53;1.53;;;1.33;;
13708;SDS011;54933;51.908;7.730;2023-01-20T01:32:19;1.60;;;1.50;;
13708;SDS011;54933;51.908;7.730;2023-01-20T01:34:44;1.77;;;1.67;;
13708;SDS011;54933;51.908;7.730;2023-01-20T01:37:10;1.57;;;1.47;;
13708;SDS011;54933;51.908;7.730;2023-01-20T01:39:35;2.77;;;1.50;;
13708;SDS011;54933;51.908;7.730;2023-01-20T01:42:00;1.80;;;1.40;;
13708;SDS011;54933;51.908;7.730;2023-01-20T01:44:25;1.90;;;1.60;;
13708;SDS011;54933;51.908;7.730;2023-01-20T01:46:52;1.63;;;1.53;;
13708;SDS011;54933;51.908;7.730;2023-01-20T01:49:27;1.70;;;1.60;;
13708;SDS011;54933;51.908;7.730;2023-01-20T01:52:02;1.43;;;1.30;;
13708;SDS011;54933;51.908;7.730;2023-01-20T01:54:31;3.27;;;1.40;;
13708;SDS011;54933;51.908;7.730;2023-01-20T01:57:00;3.03;;;1.33;;
13708;SDS011;54933;51.908;7.730;2023-01-20T01:59:26;1.97;;;1.60;;
13708;SDS011;54933;51.908;7.730;2023-01-20T02:01:52;1.40;;;1.30;;
13708;SDS011;54933;51.908;7.730;2023-01-20T02:04:24;1.70;;;1.60;;
13708;SDS011;54933;51.908;7.730;2023-01-20T02:06:55;1.63;;;1.53;;
13708;SDS011;54933;51.908;7.730;2023-01-20T02:09:24;1.30;;;1.20;;
13708;SDS011;54933;51.908;7.730;2023-01-20T02:11:51;3.33;;;1.63;;
13708;SDS011;54933;51.908;7.730;2023-01-20T02:14:27;3.03;;;1.57;;
13708;SDS011;54933;51.908;7.730;2023-01-20T02:17:13;1.60;;;1.40;;
13708;SDS011;54933;51.908;7.730;2023-01-20T02:28:21;1.60;;;1.40;;
13708;SDS011;54933;51.908;7.730;2023-01-20T02:33:42;2.00;;;1.70;;
13708;SDS011;54933;51.908;7.730;2023-01-20T02:36:14;1.63;;;1.53;;
13708;SDS011;54933;51.908;7.730;2023-01-20T02:38:55;1.47;;;1.33;;
13708;SDS011;54933;51.908;7.730;2023-01-20T02:41:36;1.70;;;1.60;;
13708;SDS011;54933;51.908;7.730;2023-01-20T02:44:15;1.90;;;1.63;;
13708;SDS011;54933;51.908;7.730;2023-01-20T02:46:59;1.60;;;1.50;;
13708;SDS011;54933;51.908;7.730;2023-01-20T02:49:30;1.50;;;1.40;;
13708;SDS011;54933;51.908;7.730;2023-01-20T02:52:02;3.27;;;1.43;;
13708;SDS011;54933;51.908;7.730;2023-01-20T02:54:37;4.17;;;1.60;;
13708;SDS011;54933;51.908;7.730;2023-01-20T02:57:05;1.83;;;1.60;;
13708;SDS011;54933;51.908;7.730;2023-01-20T02:59:33;1.70;;;1.60;;
13708;SDS011;54933;51.908;7.730;2023-01-20T03:02:07;1.67;;;1.57;;
13708;SDS011;54933;51.908;7.730;2023-01-20T03:04:39;1.47;;;1.47;;
13708;SDS011;54933;51.908;7.730;2023-01-20T03:07:08;1.40;;;1.40;;
13708;SDS011;54933;51.908;7.730;2023-01-20T03:09:37;1.60;;;1.50;;
13708;SDS011;54933;51.908;7.730;2023-01-20T03:12:18;1.97;;;1.30;;
13708;SDS011;54933;51.908;7.730;2023-01-20T03:14:47;1.50;;;1.50;;
13708;SDS011;54933;51.908;7.730;2023-01-20T03:17:13;1.90;;;1.67;;
13708;SDS011;54933;51.908;7.730;2023-01-20T03:19:39;1.43;;;1.33;;
13708;SDS011;54933;51.908;7.730;2023-01-20T03:22:04;1.57;;;1.47;;
13708;SDS011;54933;51.908;7.730;2023-01-20T03:24:30;1.70;;;1.40;;
13708;SDS011;54933;51.908;7.730;2023-01-20T03:26:57;1.40;;;1.40;;
13708;SDS011;54933;51.908;7.730;2023-01-20T03:29:23;1.73;;;1.63;;
13708;SDS011;54933;51.908;7.730;2023-01-20T03:31:53;1.60;;;1.50;;
13708;SDS011;54933;51.908;7.730;2023-01-20T03:34:24;1.60;;;1.53;;
13708;SDS011;54933;51.908;7.730;2023-01-20T03:36:52;1.67;;;1.57;;
13708;SDS011;54933;51.908;7.730;2023-01-20T03:39:18;2.30;;;1.70;;
13708;SDS011;54933;51.908;7.730;2023-01-20T03:41:57;1.80;;;1.70;;
13708;SDS011;54933;51.908;7.730;2023-01-20T03:50:26;2.70;;;1.87;;
13708;SDS011;54933;51.908;7.730;2023-01-20T03:52:59;2.67;;;1.80;;
13708;SDS011;54933;51.908;7.730;2023-01-20T03:55:41;1.40;;;1.40;;
13708;SDS011;54933;51.908;7.730;2023-01-20T03:58:11;1.53;;;1.43;;
13708;SDS011;54933;51.908;7.730;2023-01-20T04:00:41;1.83;;;1.73;;
13708;SDS011;54933;51.908;7.730;2023-01-20T04:03:16;1.30;;;1.30;;
13708;SDS011;54933;51.908;7.730;2023-01-20T04:05:45;2.53;;;1.60;;
13708;SDS011;54933;51.908;7.730;2023-01-20T04:08:12;1.80;;;1.60;;
13708;SDS011;54933;51.908;7.730;2023-01-20T04:10:39;1.80;;;1.70;;
13708;SDS011;54933;51.908;7.730;2023-01-20T04:13:07;1.50;;;1.40;;
13708;SDS011;54933;51.908;7.730;2023-01-20T04:15:40;2.37;;;1.80;;
13708;SDS011;54933;51.908;7.730;2023-01-20T04:18:14;1.67;;;1.57;;
13708;SDS011;54933;51.908;7.730;2023-01-20T04:20:43;1.70;;;1.60;;
13708;SDS011;54933;51.908;7.730;2023-01-20T04:23:13;2.30;;;1.50;;
13708;SDS011;54933;51.908;7.730;2023-01-20T04:25:56;1.87;;;1.50;;
13708;SDS011;54933;51.908;7.730;2023-01-20T04:28:21;2.27;;;1.70;;
13708;SDS011;54933;51.908;7.730;2023-01-20T04:30:46;1.53;;;1.43;;
13708;SDS011;54933;51.908;7.730;2023-01-20T04:33:12;1.63;;;1.50;;
13708;SDS011;54933;51.908;7.730;2023-01-20T04:35:37;1.93;;;1.50;;
13708;SDS011;54933;51.908;7.730;2023-01-20T04:38:02;1.80;;;1.70;;
13708;SDS011;54933;51.908;7.730;2023-01-20T04:40:28;2.27;;;1.77;;
13708;SDS011;54933;51.908;7.730;2023-01-20T04:42:53;1.73;;;1.63;;
13708;SDS011;54933;51.908;7.730;2023-01-20T04:45:18;1.80;;;1.70;;
13708;SDS011;54933;51.908;7.730;2023-01-20T04:47:44;1.40;;;1.40;;
13708;SDS011;54933;51.908;7.730;2023-01-20T04:50:10;1.50;;;1.40;;
13708;SDS011;54933;51.908;7.730;2023-01-20T04:52:36;1.77;;;1.67;;
13708;SDS011;54933;51.908;7.730;2023-01-20T04:55:02;1.90;;;1.67;;
13708;SDS011;54933;51.908;7.730;2023-01-20T04:57:28;1.57;;;1.47;;
13708;SDS011;54933;51.908;7.730;2023-01-20T04:59:53;2.00;;;1.70;;
13708;SDS011;54933;51.908;7.730;2023-01-20T05:02:18;1.50;;;1.40;;
13708;SDS011;54933;51.908;7.730;2023-01-20T05:04:44;1.60;;;1.50;;
13708;SDS011;54933;51.908;7.730;2023-01-20T05:07:09;1.70;;;1.60;;
13708;SDS011;54933;51.908;7.730;2023-01-20T05:09:35;1.73;;;1.63;;
13708;SDS011;54933;51.908;7.730;2023-01-20T05:12:00;1.53;;;1.40;;
13708;SDS011;54933;51.908;7.730;2023-01-20T05:14:25;1.67;;;1.57;;
13708;SDS011;54933;51.908;7.730;2023-01-20T05:16:51;1.37;;;1.27;;
13708;SDS011;54933;51.908;7.730;2023-01-20T05:19:16;1.63;;;1.53;;
13708;SDS011;54933;51.908;7.730;2023-01-20T05:21:41;1.90;;;1.80;;
13708;SDS011;54933;51.908;7.730;2023-01-20T05:24:07;1.43;;;1.43;;
13708;SDS011;54933;51.908;7.730;2023-01-20T05:26:33;2.07;;;1.70;;
13708;SDS011;54933;51.908;7.730;2023-01-20T05:28:58;1.90;;;1.80;;
13708;SDS011;54933;51.908;7.730;2023-01-20T05:31:23;1.80;;;1.70;;
13708;SDS011;54933;51.908;7.730;2023-01-20T05:33:49;1.87;;;1.77;;
13708;SDS011;54933;51.908;7.730;2023-01-20T05:36:14;1.70;;;1.60;;
13708;SDS011;54933;51.908;7.730;2023-01-20T05:38:39;1.60;;;1.50;;
13708;SDS011;54933;51.908;7.730;2023-01-20T05:41:05;1.80;;;1.70;;
13708;SDS011;54933;51.908;7.730;2023-01-20T05:43:32;1.70;;;1.60;;
13708;SDS011;54933;51.908;7.730;2023-01-20T05:45:58;1.90;;;1.80;;
13708;SDS011;54933;51.908;7.730;2023-01-20T05:48:24;1.67;;;1.57;;
13708;SDS011;54933;51.908;7.730;2023-01-20T05:50:49;1.77;;;1.67;;
13708;SDS011;54933;51.908;7.730;2023-01-20T05:53:15;1.60;;;1.50;;
13708;SDS011;54933;51.908;7.730;2023-01-20T05:55:41;1.60;;;1.50;;
13708;SDS011;54933;51.908;7.730;2023-01-20T05:58:06;1.70;;;1.60;;
13708;SDS011;54933;51.908;7.730;2023-01-20T06:00:32;2.40;;;2.20;;
13708;SDS011;54933;51.908;7.730;2023-01-20T06:02:58;1.90;;;1.77;;
13708;SDS011;54933;51.908;7.730;2023-01-20T06:05:24;2.80;;;2.50;;
13708;SDS011;54933;51.908;7.730;2023-01-20T06:07:49;3.07;;;2.40;;
13708;SDS011;54933;51.908;7.730;2023-01-20T06:10:15;3.00;;;2.20;;
13708;SDS011;54933;51.908;7.730;2023-01-20T06:12:41;3.50;;;2.40;;
13708;SDS011;54933;51.908;7.730;2023-01-20T06:15:06;3.20;;;2.43;;
13708;SDS011;54933;51.908;7.730;2023-01-20T06:17:32;2.40;;;2.20;;
13708;SDS011;54933;51.908;7.730;2023-01-20T06:19:57;2.47;;;2.27;;
13708;SDS011;54933;51.908;7.730;2023-01-20T06:22:24;2.57;;;2.23;;
13708;SDS011;54933;51.908;7.730;2023-01-20T06:24:50;2.20;;;2.00;;
13708;SDS011;54933;51.908;7.730;2023-01-20T06:27:16;4.90;;;2.30;;
13708;SDS011;54933;51.908;7.730;2023-01-20T06:29:41;67.57;;;16.60;;
13708;SDS011;54933;51.908;7.730;2023-01-20T06:32:06;154.50;;;22.50;;
13708;SDS011;54933;51.908;7.730;2023-01-20T06:34:31;60.63;;;14.00;;
13708;SDS011;54933;51.908;7.730;2023-01-20T06:36:57;38.67;;;9.30;;
13708;SDS011;54933;51.908;7.730;2023-01-20T06:39:22;33.37;;;7.57;;
13708;SDS011;54933;51.908;7.730;2023-01-20T06:41:47;30.27;;;7.07;;
13708;SDS011;54933;51.908;7.730;2023-01-20T06:44:13;21.80;;;6.63;;
13708;SDS011;54933;51.908;7.730;2023-01-20T06:46:39;19.73;;;5.63;;
13708;SDS011;54933;51.908;7.730;2023-01-20T06:49:04;20.47;;;5.27;;
13708;SDS011;54933;51.908;7.730;2023-01-20T06:51:30;17.77;;;5.40;;
13708;SDS011;54933;51.908;7.730;2023-01-20T06:53:55;97.20;;;12.67;;
13708;SDS011;54933;51.908;7.730;2023-01-20T06:56:21;77.83;;;13.67;;
13708;SDS011;54933;51.908;7.730;2023-01-20T06:58:47;114.47;;;15.33;;
13708;SDS011;54933;51.908;7.730;2023-01-20T07:01:13;60.10;;;9.67;;
13708;SDS011;54933;51.908;7.730;2023-01-20T07:03:42;72.97;;;9.50;;
13708;SDS011;54933;51.908;7.730;2023-01-20T07:06:19;59.80;;;8.80;;
13708;SDS011;54933;51.908;7.730;2023-01-20T07:08:50;33.33;;;7.83;;
13708;SDS011;54933;51.908;7.730;2023-01-20T07:11:16;37.87;;;7.30;;
13708;SDS011;54933;51.908;7.730;2023-01-20T07:13:42;63.43;;;7.47;;
13708;SDS011;54933;51.908;7.730;2023-01-20T07:16:07;46.97;;;6.53;;
13708;SDS011;54933;51.908;7.730;2023-01-20T07:18:33;42.73;;;6.60;;
13708;SDS011;54933;51.908;7.730;2023-01-20T07:20:58;41.63;;;6.57;;
13708;SDS011;54933;51.908;7.730;2023-01-20T07:23:24;34.57;;;6.53;;
13708;SDS011;54933;51.908;7.730;2023-01-20T07:26:05;38.77;;;5.87;;
13708;SDS011;54933;51.908;7.730;2023-01-20T07:28:32;30.73;;;5.63;;
13708;SDS011;54933;51.908;7.730;2023-01-20T07:31:08;34.33;;;5.47;;
13708;SDS011;54933;51.908;7.730;2023-01-20T07:33:35;26.60;;;5.07;;
13708;SDS011;54933;51.908;7.730;2023-01-20T07:36:01;31.03;;;5.77;;
13708;SDS011;54933;51.908;7.730;2023-01-20T07:38:27;39.70;;;5.37;;
13708;SDS011;54933;51.908;7.730;2023-01-20T07:41:00;28.47;;;4.83;;
13708;SDS011;54933;51.908;7.730;2023-01-20T07:43:27;27.53;;;5.13;;
13708;SDS011;54933;51.908;7.730;2023-01-20T07:45:59;24.43;;;6.07;;
13708;SDS011;54933;51.908;7.730;2023-01-20T07:48:26;13.67;;;4.70;;
13708;SDS011;54933;51.908;7.730;2023-01-20T07:50:55;17.07;;;4.87;;
13708;SDS011;54933;51.908;7.730;2023-01-20T07:53:26;14.87;;;4.17;;
13708;SDS011;54933;51.908;7.730;2023-01-20T07:55:52;20.10;;;4.43;;
13708;SDS011;54933;51.908;7.730;2023-01-20T07:58:17;15.37;;;4.03;;
13708;SDS011;54933;51.908;7.730;2023-01-20T08:00:42;12.37;;;4.30;;
13708;SDS011;54933;51.908;7.730;2023-01-20T08:03:12;20.17;;;4.17;;
13708;SDS011;54933;51.908;7.730;2023-01-20T08:05:37;15.43;;;3.97;;
13708;SDS011;54933;51.908;7.730;2023-01-20T08:08:03;18.03;;;3.70;;
13708;SDS011;54933;51.908;7.730;2023-01-20T08:10:28;13.10;;;3.73;;
13708;SDS011;54933;51.908;7.730;2023-01-20T08:12:53;16.73;;;4.27;;
13708;SDS011;54933;51.908;7.730;2023-01-20T08:15:19;11.43;;;3.60;;
13708;SDS011;54933;51.908;7.730;2023-01-20T08:17:44;16.23;;;4.30;;
13708;SDS011;54933;51.908;7.730;2023-01-20T08:20:09;10.13;;;3.37;;
13708;SDS011;54933;51.908;7.730;2023-01-20T08:22:35;11.97;;;3.83;;
13708;SDS011;54933;51.908;7.730;2023-01-20T08:25:00;7.93;;;3.70;;
13708;SDS011;54933;51.908;7.730;2023-01-20T08:27:26;13.03;;;4.30;;
13708;SDS011;54933;51.908;7.730;2023-01-20T08:29:53;5.87;;;3.30;;
13708;SDS011;54933;51.908;7.730;2023-01-20T08:32:19;9.37;;;3.40;;
13708;SDS011;54933;51.908;7.730;2023-01-20T08:34:44;11.80;;;3.30;;
13708;SDS011;54933;51.908;7.730;2023-01-20T08:37:10;15.93;;;3.37;;
13708;SDS011;54933;51.908;7.730;2023-01-20T08:39:35;13.10;;;3.93;;
13708;SDS011;54933;51.908;7.730;2023-01-20T08:42:00;13.90;;;3.93;;
13708;SDS011;54933;51.908;7.730;2023-01-20T08:44:25;8.73;;;3.57;;
13708;SDS011;54933;51.908;7.730;2023-01-20T08:46:51;7.10;;;3.20;;
13708;SDS011;54933;51.908;7.730;2023-01-20T08:49:19;14.17;;;3.63;;
13708;SDS011;54933;51.908;7.730;2023-01-20T08:51:47;11.70;;;3.27;;
13708;SDS011;54933;51.908;7.730;2023-01-20T08:54:13;5.33;;;3.13;;
13708;SDS011;54933;51.908;7.730;2023-01-20T08:56:39;6.77;;;2.90;;
13708;SDS011;54933;51.908;7.730;2023-01-20T08:59:04;7.33;;;2.97;;
13708;SDS011;54933;51.908;7.730;2023-01-20T09:01:30;7.47;;;2.90;;
13708;SDS011;54933;51.908;7.730;2023-01-20T09:03:59;10.57;;;3.00;;
13708;SDS011;54933;51.908;7.730;2023-01-20T09:06:25;8.87;;;3.37;;
13708;SDS011;54933;51.908;7.730;2023-01-20T09:08:51;4.57;;;3.13;;
13708;SDS011;54933;51.908;7.730;2023-01-20T09:11:18;5.60;;;3.20;;
13708;SDS011;54933;51.908;7.730;2023-01-20T09:13:46;7.23;;;3.03;;
13708;SDS011;54933;51.908;7.730;2023-01-20T09:16:15;7.90;;;2.80;;
13708;SDS011;54933;51.908;7.730;2023-01-20T09:18:42;7.27;;;3.10;;
13708;SDS011;54933;51.908;7.730;2023-01-20T09:21:08;8.07;;;3.10;;
13708;SDS011;54933;51.908;7.730;2023-01-20T09:23:34;5.23;;;2.40;;
13708;SDS011;54933;51.908;7.730;2023-01-20T09:26:02;5.47;;;3.20;;
13708;SDS011;54933;51.908;7.730;2023-01-20T09:28:28;4.67;;;2.70;;
13708;SDS011;54933;51.908;7.730;2023-01-20T09:30:58;2.60;;;2.33;;
13708;SDS011;54933;51.908;7.730;2023-01-20T09:33:24;3.50;;;2.93;;
13708;SDS011;54933;51.908;7.730;2023-01-20T09:35:56;4.33;;;2.90;;
13708;SDS011;54933;51.908;7.730;2023-01-20T09:38:23;7.97;;;2.60;;
13708;SDS011;54933;51.908;7.730;2023-01-20T09:43:57;6.87;;;3.00;;
13708;SDS011;54933;51.908;7.730;2023-01-20T09:46:37;4.10;;;2.73;;
13708;SDS011;54933;51.908;7.730;2023-01-20T09:49:52;4.70;;;2.30;;
13708;SDS011;54933;51.908;7.730;2023-01-20T09:52:45;4.20;;;2.63;;
13708;SDS011;54933;51.908;7.730;2023-01-20T10:03:42;2.77;;;2.57;;
13708;SDS011;54933;51.908;7.730;2023-01-20T10:06:38;2.83;;;2.30;;
13708;SDS011;54933;51.908;7.730;2023-01-20T10:11:45;4.23;;;2.67;;
13708;SDS011;54933;51.908;7.730;2023-01-20T10:14:13;2.83;;;2.17;;
13708;SDS011;54933;51.908;7.730;2023-01-20T10:19:48;3.67;;;2.93;;
13708;SDS011;54933;51.908;7.730;2023-01-20T10:22:22;6.43;;;2.67;;
13708;SDS011;54933;51.908;7.730;2023-01-20T10:27:41;3.67;;;2.50;;
13708;SDS011;54933;51.908;7.730;2023-01-20T10:30:15;3.20;;;2.30;;
13708;SDS011;54933;51.908;7.730;2023-01-20T10:33:06;2.73;;;2.40;;
13708;SDS011;54933;51.908;7.730;2023-01-20T10:35:51;3.17;;;2.83;;
13708;SDS011;54933;51.908;7.730;2023-01-20T10:41:05;2.90;;;2.57;;
13708;SDS011;54933;51.908;7.730;2023-01-20T10:43:36;2.30;;;2.10;;
13708;SDS011;54933;51.908;7.730;2023-01-20T10:54:37;7.83;;;3.00;;
13708;SDS011;54933;51.908;7.730;2023-01-20T10:57:20;9.30;;;2.70;;
13708;SDS011;54933;51.908;7.730;2023-01-20T10:59:50;3.53;;;2.33;;
13708;SDS011;54933;51.908;7.730;2023-01-20T11:04:59;3.87;;;2.53;;
13708;SDS011;54933;51.908;7.730;2023-01-20T11:07:26;4.47;;;2.70;;
13708;SDS011;54933;51.908;7.730;2023-01-20T11:09:53;4.37;;;2.67;;
13708;SDS011;54933;51.908;7.730;2023-01-20T11:12:21;3.60;;;2.50;;
13708;SDS011;54933;51.908;7.730;2023-01-20T11:14:49;4.23;;;2.80;;
13708;SDS011;54933;51.908;7.730;2023-01-20T11:17:18;4.70;;;2.60;;
13708;SDS011;54933;51.908;7.730;2023-01-20T11:19:53;2.60;;;2.40;;
13708;SDS011;54933;51.908;7.730;2023-01-20T11:22:44;2.67;;;2.47;;
13708;SDS011;54933;51.908;7.730;2023-01-20T11:25:20;54.13;;;7.37;;
13708;SDS011;54933;51.908;7.730;2023-01-20T11:27:48;18.53;;;3.70;;
13708;SDS011;54933;51.908;7.730;2023-01-20T11:30:22;9.53;;;3.00;;
13708;SDS011;54933;51.908;7.730;2023-01-20T11:35:57;12.17;;;2.87;;
13708;SDS011;54933;51.908;7.730;2023-01-20T11:38:53;8.30;;;2.90;;
13708;SDS011;54933;51.908;7.730;2023-01-20T11:41:27;11.77;;;2.20;;
13708;SDS011;54933;51.908;7.730;2023-01-20T11:43:54;6.87;;;2.43;;
13708;SDS011;54933;51.908;7.730;2023-01-20T11:51:46;5.30;;;2.80;;
13708;SDS011;54933;51.908;7.730;2023-01-20T11:54:14;9.97;;;2.53;;
13708;SDS011;54933;51.908;7.730;2023-01-20T11:56:42;3.73;;;2.33;;
13708;SDS011;54933;51.908;7.730;2023-01-20T11:59:34;5.07;;;2.50;;
13708;SDS011;54933;51.908;7.730;2023-01-20T12:02:16;3.80;;;2.10;;
13708;SDS011;54933;51.908;7.730;2023-01-20T12:07:38;2.83;;;2.20;;
13708;SDS011;54933;51.908;7.730;2023-01-20T12:10:20;5.53;;;2.17;;
13708;SDS011;54933;51.908;7.730;2023-01-20T12:12:52;2.63;;;1.77;;
13708;SDS011;54933;51.908;7.730;2023-01-20T12:15:28;3.77;;;2.10;;
13708;SDS011;54933;51.908;7.730;2023-01-20T12:18:02;3.80;;;2.30;;
13708;SDS011;54933;51.908;7.730;2023-01-20T12:23:19;3.07;;;1.90;;
13708;SDS011;54933;51.908;7.730;2023-01-20T12:25:58;2.70;;;2.07;;
13708;SDS011;54933;51.908;7.730;2023-01-20T12:31:01;2.07;;;1.87;;
13708;SDS011;54933;51.908;7.730;2023-01-20T12:33:33;2.30;;;1.93;;
13708;SDS011;54933;51.908;7.730;2023-01-20T12:36:23;2.97;;;1.83;;
13708;SDS011;54933;51.908;7.730;2023-01-20T12:39:06;3.27;;;1.80;;
13708;SDS011;54933;51.908;7.730;2023-01-20T12:58:11;1.63;;;1.50;;
13708;SDS011;54933;51.908;7.730;2023-01-20T13:08:53;1.87;;;1.63;;
13708;SDS011;54933;51.908;7.730;2023-01-20T13:14:35;1.77;;;1.43;;
13708;SDS011;54933;51.908;7.730;2023-01-20T13:17:09;1.13;;;1.13;;
13708;SDS011;54933;51.908;7.730;2023-01-20T13:19:39;2.20;;;1.50;;
13708;SDS011;54933;51.908;7.730;2023-01-20T13:22:10;2.80;;;1.70;;
13708;SDS011;54933;51.908;7.730;2023-01-20T13:24:40;1.50;;;1.40;;
13708;SDS011;54933;51.908;7.730;2023-01-20T13:27:09;1.40;;;1.40;;
13708;SDS011;54933;51.908;7.730;2023-01-20T13:32:01;1.60;;;1.50;;
13708;SDS011;54933;51.908;7.730;2023-01-20T13:37:39;2.07;;;1.77;;
13708;SDS011;54933;51.908;7.730;2023-01-20T13:39:56;1.30;;;1.20;;
13708;SDS011;54933;51.908;7.730;2023-01-20T13:45:33;1.93;;;1.77;;
13708;SDS011;54933;51.908;7.730;2023-01-20T13:50:33;26.53;;;4.73;;
13708;SDS011;54933;51.908;7.730;2023-01-20T14:00:43;15.27;;;2.73;;
13708;SDS011;54933;51.908;7.730;2023-01-20T14:05:57;9.43;;;2.40;;
13708;SDS011;54933;51.908;7.730;2023-01-20T14:08:44;10.30;;;2.23;;
13708;SDS011;54933;51.908;7.730;2023-01-20T14:11:20;7.80;;;2.37;;
13708;SDS011;54933;51.908;7.730;2023-01-20T14:13:51;14.03;;;2.03;;
13708;SDS011;54933;51.908;7.730;2023-01-20T14:16:25;10.67;;;2.50;;
13708;SDS011;54933;51.908;7.730;2023-01-20T14:18:53;2.80;;;1.67;;
13708;SDS011;54933;51.908;7.730;2023-01-20T14:21:24;9.60;;;1.77;;
13708;SDS011;54933;51.908;7.730;2023-01-20T14:23:51;6.57;;;2.17;;
13708;SDS011;54933;51.908;7.730;2023-01-20T14:26:29;84.17;;;8.13;;
13708;SDS011;54933;51.908;7.730;2023-01-20T14:28:59;26.87;;;3.73;;
13708;SDS011;54933;51.908;7.730;2023-01-20T14:31:29;12.93;;;3.00;;
13708;SDS011;54933;51.908;7.730;2023-01-20T14:34:18;25.47;;;3.23;;
13708;SDS011;54933;51.908;7.730;2023-01-20T14:36:49;24.07;;;3.77;;
13708;SDS011;54933;51.908;7.730;2023-01-20T14:39:25;23.23;;;3.50;;
13708;SDS011;54933;51.908;7.730;2023-01-20T14:41:52;6.03;;;2.80;;
13708;SDS011;54933;51.908;7.730;2023-01-20T14:44:20;15.63;;;2.90;;
13708;SDS011;54933;51.908;7.730;2023-01-20T14:46:51;9.57;;;3.07;;
13708;SDS011;54933;51.908;7.730;2023-01-20T14:49:18;40.97;;;6.70;;
13708;SDS011;54933;51.908;7.730;2023-01-20T14:51:47;49.20;;;7.07;;
13708;SDS011;54933;51.908;7.730;2023-01-20T14:57:02;18.77;;;3.37;;
13708;SDS011;54933;51.908;7.730;2023-01-20T15:02:46;19.87;;;3.00;;
13708;SDS011;54933;51.908;7.730;2023-01-20T15:05:20;18.43;;;3.70;;
13708;SDS011;54933;51.908;7.730;2023-01-20T15:07:46;25.50;;;3.17;;
13708;SDS011;54933;51.908;7.730;2023-01-20T15:10:13;30.77;;;3.90;;
13708;SDS011;54933;51.908;7.730;2023-01-20T15:20:35;33.20;;;4.77;;
13708;SDS011;54933;51.908;7.730;2023-01-20T15:23:09;28.13;;;4.00;;
13708;SDS011;54933;51.908;7.730;2023-01-20T15:25:38;24.87;;;3.90;;
13708;SDS011;54933;51.908;7.730;2023-01-20T15:28:03;32.00;;;3.83;;
13708;SDS011;54933;51.908;7.730;2023-01-20T15:30:29;30.30;;;4.53;;
13708;SDS011;54933;51.908;7.730;2023-01-20T15:32:54;17.83;;;3.67;;
13708;SDS011;54933;51.908;7.730;2023-01-20T15:35:20;27.83;;;2.97;;
13708;SDS011;54933;51.908;7.730;2023-01-20T15:37:49;21.57;;;3.43;;
13708;SDS011;54933;51.908;7.730;2023-01-20T15:40:15;19.80;;;2.93;;
13708;SDS011;54933;51.908;7.730;2023-01-20T15:42:42;18.00;;;2.80;;
13708;SDS011;54933;51.908;7.730;2023-01-20T15:45:10;17.40;;;2.87;;
13708;SDS011;54933;51.908;7.730;2023-01-20T15:47:37;13.13;;;3.40;;
13708;SDS011;54933;51.908;7.730;2023-01-20T15:50:02;14.67;;;2.83;;
13708;SDS011;54933;51.908;7.730;2023-01-20T15:52:28;18.40;;;2.80;;
13708;SDS011;54933;51.908;7.730;2023-01-20T15:54:53;13.47;;;2.50;;
13708;SDS011;54933;51.908;7.730;2023-01-20T15:57:19;21.63;;;3.47;;
13708;SDS011;54933;51.908;7.730;2023-01-20T15:59:44;13.87;;;2.67;;
13708;SDS011;54933;51.908;7.730;2023-01-20T16:02:17;11.73;;;2.80;;
13708;SDS011;54933;51.908;7.730;2023-01-20T16:04:44;7.40;;;3.00;;
13708;SDS011;54933;51.908;7.730;2023-01-20T16:07:16;9.90;;;2.10;;
13708;SDS011;54933;51.908;7.730;2023-01-20T16:09:44;12.30;;;1.97;;
13708;SDS011;54933;51.908;7.730;2023-01-20T16:12:14;7.27;;;1.80;;
13708;SDS011;54933;51.908;7.730;2023-01-20T16:14:41;7.83;;;2.17;;
13708;SDS011;54933;51.908;7.730;2023-01-20T16:17:14;6.80;;;2.33;;
13708;SDS011;54933;51.908;7.730;2023-01-20T16:19:47;33.37;;;5.53;;
13708;SDS011;54933;51.908;7.730;2023-01-20T16:22:13;12.30;;;3.20;;
13708;SDS011;54933;51.908;7.730;2023-01-20T16:24:39;12.80;;;2.60;;
13708;SDS011;54933;51.908;7.730;2023-01-20T16:27:13;10.33;;;2.57;;
13708;SDS011;54933;51.908;7.730;2023-01-20T16:29:43;10.53;;;2.03;;
13708;SDS011;54933;51.908;7.730;2023-01-20T16:32:09;6.80;;;2.03;;
13708;SDS011;54933;51.908;7.730;2023-01-20T16:34:35;5.53;;;2.10;;
13708;SDS011;54933;51.908;7.730;2023-01-20T16:37:00;5.60;;;1.90;;
13708;SDS011;54933;51.908;7.730;2023-01-20T16:39:26;5.30;;;1.83;;
13708;SDS011;54933;51.908;7.730;2023-01-20T16:41:52;118.87;;;10.33;;
13708;SDS011;54933;51.908;7.730;2023-01-20T16:44:18;103.80;;;11.40;;
13708;SDS011;54933;51.908;7.730;2023-01-20T16:46:44;71.57;;;7.00;;
13708;SDS011;54933;51.908;7.730;2023-01-20T16:49:11;39.87;;;4.73;;
13708;SDS011;54933;51.908;7.730;2023-01-20T16:51:36;31.07;;;4.33;;
13708;SDS011;54933;51.908;7.730;2023-01-20T16:54:02;47.07;;;4.80;;
13708;SDS011;54933;51.908;7.730;2023-01-20T16:56:28;27.40;;;3.57;;
13708;SDS011;54933;51.908;7.730;2023-01-20T16:58:56;27.40;;;3.93;;
13708;SDS011;54933;51.908;7.730;2023-01-20T17:01:23;20.70;;;3.40;;
13708;SDS011;54933;51.908;7.730;2023-01-20T17:03:50;23.37;;;3.13;;
13708;SDS011;54933;51.908;7.730;2023-01-20T17:06:17;23.67;;;3.93;;